Time;durP1;ratioP1;P1;durP2;ratioP2;P2;SDS_P1;SDS_P2;PMS_P1;PMS_P2;Temp;Humidity;BMP_temperature;BMP_pressure;BME280_temperature;BME280_humidity;BME280_pressure;Samples;Min_cycle;Max_cycle;Signal;HPM_P1;HPM_P2
2023/04/07 00:00:16;;;;;;;;;;;;;;;24.81;28.07;100535.00;5097658;28;1931;-26
2023/04/07 00:02:42;;;;;;;;;;;;;;;24.77;28.20;100536.38;5098438;28;1067;-26
2023/04/07 00:05:08;;;;;;;;;;;;;;;24.86;28.10;100535.34;5098669;28;1109;-26
2023/04/07 00:07:33;;;;;;;;;;;;;;;24.91;27.97;100540.22;5098311;28;1139;-27
2023/04/07 00:09:59;;;;;;;;;;;;;;;24.88;27.99;100541.38;5098398;28;1117;-26
2023/04/07 00:12:24;;;;;;;;;;;;;;;24.74;28.34;100540.25;5098996;28;1022;-25
2023/04/07 00:14:50;;;;;;;;;;;;;;;24.61;28.37;100534.59;5098617;28;1054;-27
2023/04/07 00:17:15;;;;;;;;;;;;;;;24.78;28.34;100535.34;5098686;28;1121;-24
2023/04/07 00:19:42;;;;;;;;;;;;;;;24.91;28.30;100533.00;5098149;28;1225;-25
2023/04/07 00:22:08;;;;;;;;;;;;;;;24.93;28.11;100524.75;5098431;28;1901;-26
2023/04/07 00:24:33;;;;;;;;;;;;;;;24.79;28.25;100540.56;5097994;28;1144;-28
2023/04/07 00:26:59;;;;;;;;;;;;;;;24.77;28.34;100533.69;5098095;28;1093;-27
2023/04/07 00:29:25;;;;;;;;;;;;;;;24.72;28.46;100536.91;5098122;28;1138;-27
2023/04/07 00:31:50;;;;;;;;;;;;;;;24.76;28.32;100529.31;5098243;28;1022;-26
2023/04/07 00:34:16;;;;;;;;;;;;;;;24.90;28.00;100533.16;5097848;28;1162;-28
2023/04/07 00:36:42;;;;;;;;;;;;;;;24.75;28.17;100536.56;5098208;28;1194;-25
2023/04/07 00:39:07;;;;;;;;;;;;;;;24.73;28.08;100533.19;5097716;28;1011;-25
2023/04/07 00:41:34;;;;;;;;;;;;;;;24.87;28.09;100534.34;5097740;28;1968;-26
2023/04/07 00:44:00;;;;;;;;;;;;;;;24.91;27.94;100543.75;5097046;28;1074;-25
2023/04/07 00:46:26;;;;;;;;;;;;;;;24.89;28.28;100534.16;5097473;28;1073;-25
2023/04/07 00:48:51;;;;;;;;;;;;;;;24.84;28.01;100545.41;5097942;28;1182;-27
2023/04/07 00:51:19;;;;;;;;;;;;;;;24.71;28.23;100543.28;5079533;28;1159;-28
2023/04/07 00:53:44;;;;;;;;;;;;;;;24.68;28.36;100539.09;5084135;28;1047;-26
2023/04/07 00:56:12;;;;;;;;;;;;;;;24.74;28.22;100537.56;5079435;28;1206;-26
2023/04/07 00:58:38;;;;;;;;;;;;;;;24.77;28.07;100547.16;5097662;28;1226;-25
2023/04/07 01:01:07;;;;;;;;;;;;;;;24.80;27.97;100542.25;5086365;28;1977;-25
2023/04/07 01:03:35;;;;;;;;;;;;;;;24.69;28.19;100545.31;5080217;28;1184;-26
2023/04/07 01:06:01;;;;;;;;;;;;;;;24.64;28.18;100543.13;5097274;28;1046;-25
2023/04/07 01:08:30;;;;;;;;;;;;;;;24.74;28.19;100542.94;5097093;28;1137;-25
2023/04/07 01:10:56;;;;;;;;;;;;;;;24.90;28.00;100544.78;5083252;28;1355;-24
2023/04/07 01:13:29;;;;;;;;;;;;;;;24.81;27.94;100535.00;5078319;28;1143;-25
2023/04/07 01:16:04;;;;;;;;;;;;;;;24.70;27.97;100539.78;5078560;28;1109;-26
2023/04/07 01:18:34;;;;;;;;;;;;;;;24.80;27.81;100541.41;5078750;28;1146;-25
2023/04/07 01:21:01;;;;;;;;;;;;;;;24.69;28.03;100542.63;5078525;28;1910;-29
2023/04/07 01:23:46;;;;;;;;;;;;;;;24.75;28.02;100533.88;5079029;28;1226;-24
2023/04/07 01:26:12;;;;;;;;;;;;;;;24.78;27.89;100536.22;5078425;28;1170;-25
2023/04/07 01:28:56;;;;;;;;;;;;;;;24.80;27.81;100534.19;5078935;28;1102;-29
2023/04/07 01:31:22;;;;;;;;;;;;;;;24.70;28.03;100539.78;5083832;28;995;-25
2023/04/07 01:33:48;;;;;;;;;;;;;;;24.72;27.99;100544.97;5062263;28;1285;-25
2023/04/07 01:36:13;;;;;;;;;;;;;;;24.87;27.77;100549.63;5079033;28;1066;-29
2023/04/07 01:38:39;;;;;;;;;;;;;;;24.82;27.97;100545.59;5062197;28;1230;-24
2023/04/07 01:41:05;;;;;;;;;;;;;;;24.89;27.54;100542.25;5071945;28;1914;-26
2023/04/07 01:43:30;;;;;;;;;;;;;;;24.79;27.77;100539.75;5058519;28;1134;-27
2023/04/07 01:45:56;;;;;;;;;;;;;;;24.75;27.83;100530.31;5078690;28;1296;-25
2023/04/07 01:48:21;;;;;;;;;;;;;;;24.76;27.88;100535.53;5090365;28;1131;-25
2023/04/07 01:50:47;;;;;;;;;;;;;;;24.76;27.84;100530.16;5096742;28;1029;-26
2023/04/07 01:53:13;;;;;;;;;;;;;;;24.85;27.68;100532.81;5078449;28;935;-27
2023/04/07 01:55:38;;;;;;;;;;;;;;;24.78;27.85;100541.59;5078723;28;1352;-26
2023/04/07 01:58:07;;;;;;;;;;;;;;;24.81;27.89;100540.38;5078251;28;1351;-27
2023/04/07 02:00:34;;;;;;;;;;;;;;;24.70;28.01;100541.59;5078555;28;1909;-25
2023/04/07 02:03:10;;;;;;;;;;;;;;;24.83;27.83;100536.53;5078576;28;1399;-26
2023/04/07 02:05:37;;;;;;;;;;;;;;;24.82;27.77;100537.53;5069396;28;1110;-25
2023/04/07 02:08:04;;;;;;;;;;;;;;;24.73;27.98;100545.78;5071822;28;1121;-25
2023/04/07 02:10:32;;;;;;;;;;;;;;;24.67;28.00;100547.34;5058350;28;1194;-26
2023/04/07 02:12:59;;;;;;;;;;;;;;;24.64;28.02;100539.63;5074740;28;1248;-25
2023/04/07 02:15:25;;;;;;;;;;;;;;;24.77;27.72;100536.38;5058313;28;1294;-25
2023/04/07 02:17:51;;;;;;;;;;;;;;;24.76;27.83;100542.75;5080664;28;920;-27
2023/04/07 02:20:17;;;;;;;;;;;;;;;24.70;27.90;100539.78;5078260;28;1981;-27
2023/04/07 02:22:43;;;;;;;;;;;;;;;24.70;27.98;100541.59;5078259;28;1171;-25
2023/04/07 02:25:42;;;;;;;;;;;;;;;24.58;28.25;100544.66;5077703;28;1136;-27
2023/04/07 02:28:08;;;;;;;;;;;;;;;24.65;28.05;100546.66;5055548;28;1247;-27
2023/04/07 02:30:34;;;;;;;;;;;;;;;24.69;27.83;100546.13;5082637;28;1137;-27
2023/04/07 02:33:00;;;;;;;;;;;;;;;24.65;28.00;100546.66;5076214;28;1131;-26
2023/04/07 02:35:25;;;;;;;;;;;;;;;24.69;27.98;100550.69;5076073;28;1146;-28
2023/04/07 02:37:51;;;;;;;;;;;;;;;24.66;27.94;100554.56;5076040;28;1228;-27
2023/04/07 02:40:16;;;;;;;;;;;;;;;24.55;28.42;100563.84;5079635;28;1979;-26
2023/04/07 02:42:42;;;;;;;;;;;;;;;24.61;27.99;100559.59;5082823;28;1188;-26
2023/04/07 02:45:08;;;;;;;;;;;;;;;24.66;27.93;100567.16;5096093;28;1066;-24
2023/04/07 02:47:35;;;;;;;;;;;;;;;24.60;28.15;100574.06;5078200;28;1197;-30
2023/04/07 02:50:01;;;;;;;;;;;;;;;24.65;27.88;100565.50;5095514;28;1122;-28
2023/04/07 02:52:27;;;;;;;;;;;;;;;24.69;27.85;100570.34;5095440;28;1146;-26
2023/04/07 02:54:52;;;;;;;;;;;;;;;24.64;27.80;100566.50;5082227;28;1069;-25
2023/04/07 02:57:21;;;;;;;;;;;;;;;24.66;27.87;100575.22;5065788;28;1194;-28
2023/04/07 02:59:50;;;;;;;;;;;;;;;24.59;27.95;100577.75;5077688;28;1972;-27
2023/04/07 03:02:16;;;;;;;;;;;;;;;24.64;27.86;100580.78;5078006;28;1110;-27
2023/04/07 03:04:42;;;;;;;;;;;;;;;24.74;27.71;100577.06;5076785;28;1066;-25
2023/04/07 03:07:07;;;;;;;;;;;;;;;24.64;27.71;100571.88;5065254;28;1224;-26
2023/04/07 03:09:33;;;;;;;;;;;;;;;24.64;27.75;100575.41;5096048;28;1095;-24
2023/04/07 03:11:59;;;;;;;;;;;;;;;24.57;27.96;100577.09;5077845;28;1386;-28
2023/04/07 03:14:29;;;;;;;;;;;;;;;24.53;27.91;100576.59;5077801;28;1114;-27
2023/04/07 03:16:56;;;;;;;;;;;;;;;24.63;27.76;100572.88;5095722;28;1134;-26
2023/04/07 03:19:22;;;;;;;;;;;;;;;24.46;28.11;100578.28;5077849;28;1174;-30
2023/04/07 03:21:49;;;;;;;;;;;;;;;24.65;27.98;100576.25;5077724;28;1909;-28
2023/04/07 03:24:15;;;;;;;;;;;;;;;24.76;27.88;100583.94;5077661;28;1107;-25
2023/04/07 03:26:40;;;;;;;;;;;;;;;24.79;27.89;100580.91;5095590;28;1146;-25
2023/04/07 03:29:15;;;;;;;;;;;;;;;24.78;27.90;100584.63;5077684;28;1129;-28
2023/04/07 03:31:42;;;;;;;;;;;;;;;24.71;27.97;100589.00;5077493;28;1272;-30
2023/04/07 03:34:08;;;;;;;;;;;;;;;24.61;28.03;100586.50;5077575;28;1156;-29
2023/04/07 03:36:34;;;;;;;;;;;;;;;24.62;28.13;100590.03;5079319;28;1151;-25
2023/04/07 03:39:02;;;;;;;;;;;;;;;23.66;23.56;100592.09;5081090;28;1287;-28
2023/04/07 03:41:28;;;;;;;;;;;;;;;22.60;24.17;100602.91;5098572;28;1929;-25
2023/04/07 03:43:54;;;;;;;;;;;;;;;22.19;23.46;100596.19;5064408;28;1267;-26
2023/04/07 03:46:20;;;;;;;;;;;;;;;22.25;22.62;100600.13;5060983;28;1283;-30
2023/04/07 03:48:46;;;;;;;;;;;;;;;24.90;23.90;100605.78;5074390;28;1241;-24
2023/04/07 03:51:12;;;;;;;;;;;;;;;28.88;19.39;100606.53;5087648;28;1150;-28
2023/04/07 03:53:38;;;;;;;;;;;;;;;25.44;23.88;100605.13;5080717;28;1086;-31
2023/04/07 03:56:15;;;;;;;;;;;;;;;24.92;24.85;100610.00;5080404;28;1393;-28
2023/04/07 03:58:48;;;;;;;;;;;;;;;27.31;22.05;100616.84;5064379;28;1920;-27
2023/04/07 04:01:21;;;;;;;;;;;;;;;27.46;21.12;100618.72;5087412;28;1913;-22
2023/04/07 04:03:49;;;;;;;;;;;;;;;27.58;21.04;100619.03;5078246;28;1135;-26
2023/04/07 04:06:21;;;;;;;;;;;;;;;27.93;20.16;100629.22;5080475;28;1145;-30
2023/04/07 04:08:47;;;;;;;;;;;;;;;27.93;20.20;100631.94;5080529;28;1165;-23
2023/04/07 04:11:13;;;;;;;;;;;;;;;28.16;19.82;100634.47;5080759;28;1051;-23
2023/04/07 04:13:46;;;;;;;;;;;;;;;27.86;19.74;100630.00;5071092;28;1244;-23
2023/04/07 04:16:11;;;;;;;;;;;;;;;28.00;19.51;100638.25;5092668;28;1121;-23
2023/04/07 04:18:38;;;;;;;;;;;;;;;28.09;19.47;100639.78;5079589;28;1126;-23
2023/04/07 04:21:05;;;;;;;;;;;;;;;28.01;19.74;100641.81;5079809;28;2029;-23
2023/04/07 04:23:32;;;;;;;;;;;;;;;28.24;19.43;100642.44;5079537;28;1301;-23
2023/04/07 04:26:02;;;;;;;;;;;;;;;28.14;19.20;100647.34;5079589;28;1297;-22
2023/04/07 04:28:28;;;;;;;;;;;;;;;28.27;19.09;100645.78;5074818;28;1510;-23
2023/04/07 04:30:54;;;;;;;;;;;;;;;28.18;19.53;100651.34;5079865;28;964;-23
2023/04/07 04:33:20;;;;;;;;;;;;;;;27.93;19.57;100648.16;5077310;28;1110;-26
2023/04/07 04:35:57;;;;;;;;;;;;;;;28.20;19.56;100654.69;5090100;28;1162;-23
2023/04/07 04:38:24;;;;;;;;;;;;;;;28.13;19.38;100661.88;5079848;28;1235;-22
2023/04/07 04:40:59;;;;;;;;;;;;;;;27.96;19.79;100659.44;5079424;28;1925;-22
2023/04/07 04:43:28;;;;;;;;;;;;;;;27.23;19.24;100652.03;5078842;28;1147;-22
2023/04/07 04:45:55;;;;;;;;;;;;;;;26.65;19.67;100657.00;5079765;28;1209;-23
2023/04/07 04:48:23;;;;;;;;;;;;;;;27.23;19.97;100655.59;5079040;28;1135;-22
2023/04/07 04:50:49;;;;;;;;;;;;;;;27.31;19.76;100670.84;5097740;28;1094;-24
2023/04/07 04:53:14;;;;;;;;;;;;;;;27.03;18.06;100666.09;5078581;28;1158;-22
2023/04/07 04:55:52;;;;;;;;;;;;;;;25.83;18.83;100663.75;5079573;28;1094;-26
2023/04/07 04:58:25;;;;;;;;;;;;;;;25.94;20.74;100676.00;5079311;28;1147;-24
2023/04/07 05:00:58;;;;;;;;;;;;;;;27.12;19.81;100675.81;5079367;28;1969;-24
2023/04/07 05:03:31;;;;;;;;;;;;;;;26.44;21.08;100673.00;5078842;28;1123;-23
2023/04/07 05:06:01;;;;;;;;;;;;;;;26.68;20.13;100677.34;5078998;28;1460;-27
2023/04/07 05:08:27;;;;;;;;;;;;;;;26.87;20.96;100681.41;5096875;28;1151;-27
2023/04/07 05:10:54;;;;;;;;;;;;;;;27.03;21.51;100682.28;5077773;28;1233;-23
2023/04/07 05:13:24;;;;;;;;;;;;;;;27.27;21.61;100683.06;5077716;28;1181;-24
2023/04/07 05:15:50;;;;;;;;;;;;;;;26.60;21.57;100680.97;5079229;28;1055;-22
2023/04/07 05:18:15;;;;;;;;;;;;;;;27.03;22.45;100679.59;5075272;28;1151;-24
2023/04/07 05:20:42;;;;;;;;;;;;;;;27.17;22.36;100679.78;5062454;28;1926;-22
2023/04/07 05:23:08;;;;;;;;;;;;;;;27.27;22.43;100688.47;5062122;28;1309;-21
2023/04/07 05:25:35;;;;;;;;;;;;;;;26.95;22.81;100687.75;5077757;28;1214;-22
2023/04/07 05:28:03;;;;;;;;;;;;;;;26.82;23.40;100689.22;5076618;28;1103;-21
2023/04/07 05:30:30;;;;;;;;;;;;;;;27.28;22.81;100694.72;5078268;28;1134;-24
2023/04/07 05:32:56;;;;;;;;;;;;;;;27.62;22.77;100693.31;5078446;28;1237;-25
2023/04/07 05:35:38;;;;;;;;;;;;;;;26.92;23.07;100702.47;5078423;28;1198;-24
2023/04/07 05:38:04;;;;;;;;;;;;;;;26.77;23.27;100699.72;5078622;28;1148;-23
2023/04/07 05:40:30;;;;;;;;;;;;;;;27.27;23.50;100693.88;5078151;28;1906;-23
2023/04/07 05:42:59;;;;;;;;;;;;;;;27.53;22.92;100700.66;5077943;28;1097;-23
2023/04/07 05:45:26;;;;;;;;;;;;;;;26.41;23.90;100704.69;5077984;28;1357;-23
2023/04/07 05:47:53;;;;;;;;;;;;;;;26.17;24.51;100711.06;5077832;28;1405;-24
2023/04/07 05:50:25;;;;;;;;;;;;;;;26.93;23.93;100700.56;5078379;28;1515;-24
2023/04/07 05:52:51;;;;;;;;;;;;;;;27.45;23.69;100700.75;5078682;28;1222;-22
2023/04/07 05:55:22;;;;;;;;;;;;;;;27.55;22.84;100704.03;5075788;28;1212;-23
2023/04/07 05:57:49;;;;;;;;;;;;;;;26.49;23.74;100700.28;5078185;28;1289;-23
2023/04/07 06:00:18;;;;;;;;;;;;;;;26.73;24.41;100706.50;5077465;28;1976;-27
2023/04/07 06:02:51;;;;;;;;;;;;;;;27.22;23.74;100710.63;5077928;28;1457;-28
2023/04/07 06:05:19;;;;;;;;;;;;;;;27.54;23.36;100712.31;5096013;28;1143;-26
2023/04/07 06:07:47;;;;;;;;;;;;;;;27.00;23.99;100710.47;5077766;28;951;-25
2023/04/07 06:10:13;;;;;;;;;;;;;;;27.01;23.91;100712.19;5077879;28;1236;-24
2023/04/07 06:12:39;;;;;;;;;;;;;;;27.10;23.84;100712.09;5078095;28;1205;-24
2023/04/07 06:15:05;;;;;;;;;;;;;;;27.48;23.80;100717.44;5071165;28;1098;-26
2023/04/07 06:17:30;;;;;;;;;;;;;;;26.96;23.57;100717.25;5093047;28;1312;-24
2023/04/07 06:19:56;;;;;;;;;;;;;;;27.06;24.37;100710.81;5096117;28;1151;-28
2023/04/07 06:22:22;;;;;;;;;;;;;;;27.23;24.17;100725.81;5096073;28;1906;-24
2023/04/07 06:24:47;;;;;;;;;;;;;;;27.70;23.53;100719.41;5094453;28;1238;-22
2023/04/07 06:27:13;;;;;;;;;;;;;;;26.89;24.24;100719.84;5062242;28;1095;-23
2023/04/07 06:29:38;;;;;;;;;;;;;;;27.02;24.26;100719.28;5077316;28;1052;-23
2023/04/07 06:32:05;;;;;;;;;;;;;;;27.16;24.58;100724.84;5077749;28;1370;-23
2023/04/07 06:34:31;;;;;;;;;;;;;;;27.45;24.05;100725.06;5077973;28;1164;-23
2023/04/07 06:36:56;;;;;;;;;;;;;;;27.07;24.28;100725.97;5077704;28;1141;-25
2023/04/07 06:39:22;;;;;;;;;;;;;;;26.84;24.71;100730.34;5095380;28;1087;-23
2023/04/07 06:41:48;;;;;;;;;;;;;;;27.09;24.67;100723.94;5095564;28;1905;-25
2023/04/07 06:44:13;;;;;;;;;;;;;;;27.31;24.39;100732.97;5095229;28;1047;-23
2023/04/07 06:46:40;;;;;;;;;;;;;;;27.46;24.15;100732.16;5095801;28;1382;-25
2023/04/07 06:49:06;;;;;;;;;;;;;;;26.62;24.61;100732.03;5083484;28;1234;-23
2023/04/07 06:51:31;;;;;;;;;;;;;;;26.78;25.02;100734.63;5096045;28;1261;-26
2023/04/07 06:53:57;;;;;;;;;;;;;;;27.27;24.51;100728.97;5077125;28;1313;-22
2023/04/07 06:56:23;;;;;;;;;;;;;;;27.55;24.07;100727.50;5095700;28;1109;-26
2023/04/07 06:58:48;;;;;;;;;;;;;;;26.72;24.11;100731.81;5077606;28;1292;-23
2023/04/07 07:01:14;;;;;;;;;;;;;;;27.23;24.02;100741.16;5095624;28;1983;-26
2023/04/07 07:03:40;;;;;;;;;;;;;;;27.16;24.60;100740.25;5095619;28;1091;-22
2023/04/07 07:06:05;;;;;;;;;;;;;;;27.18;24.56;100748.97;5095228;28;1126;-21
2023/04/07 07:08:31;;;;;;;;;;;;;;;27.10;23.89;100748.03;5095374;28;1114;-22
2023/04/07 07:10:57;;;;;;;;;;;;;;;27.03;24.39;100749.78;5098196;28;1093;-28
2023/04/07 07:13:23;;;;;;;;;;;;;;;27.10;24.29;100748.03;5099634;28;1141;-25
2023/04/07 07:15:49;;;;;;;;;;;;;;;27.45;24.15;100760.19;5099705;28;1053;-24
2023/04/07 07:18:15;;;;;;;;;;;;;;;26.90;23.65;100748.53;5098973;28;1042;-23
2023/04/07 07:20:40;;;;;;;;;;;;;;;26.40;23.77;100753.44;5080939;28;1906;-29
2023/04/07 07:23:06;;;;;;;;;;;;;;;26.52;24.03;100753.88;5099453;28;952;-25
2023/04/07 07:25:31;;;;;;;;;;;;;;;26.68;24.36;100752.06;5098780;28;1288;-24
2023/04/07 07:27:57;;;;;;;;;;;;;;;26.48;24.67;100749.84;5099270;28;1190;-24
2023/04/07 07:30:23;;;;;;;;;;;;;;;26.24;24.87;100749.78;5098684;28;1314;-23
2023/04/07 07:32:48;;;;;;;;;;;;;;;26.27;25.76;100752.16;5098789;28;1229;-26
2023/04/07 07:35:14;;;;;;;;;;;;;;;26.58;25.16;100755.00;5099580;28;1189;-27
2023/04/07 07:37:40;;;;;;;;;;;;;;;27.13;24.81;100769.28;5090422;28;1250;-27
2023/04/07 07:40:06;;;;;;;;;;;;;;;26.85;24.62;100763.56;5093446;28;1914;-23
2023/04/07 07:42:31;;;;;;;;;;;;;;;26.59;24.98;100768.31;5098974;28;1037;-26
2023/04/07 07:44:57;;;;;;;;;;;;;;;27.05;24.86;100769.34;5098645;28;1102;-23
2023/04/07 07:47:23;;;;;;;;;;;;;;;27.37;24.24;100775.47;5099145;28;1229;-26
2023/04/07 07:49:48;;;;;;;;;;;;;;;26.41;24.90;100771.28;5092453;28;1182;-24
2023/04/07 07:52:14;;;;;;;;;;;;;;;26.59;24.85;100773.69;5090603;28;1081;-25
2023/04/07 07:54:39;;;;;;;;;;;;;;;27.17;24.54;100774.31;5098349;28;1099;-26
2023/04/07 07:57:05;;;;;;;;;;;;;;;27.51;24.16;100781.91;5098516;28;1090;-26
2023/04/07 07:59:31;;;;;;;;;;;;;;;26.87;24.38;100775.03;5097854;28;1228;-27
2023/04/07 08:01:57;;;;;;;;;;;;;;;26.99;23.94;100764.66;5084765;28;1975;-29
2023/04/07 08:04:22;;;;;;;;;;;;;;;27.18;24.53;100776.81;5098414;28;1218;-28
2023/04/07 08:06:48;;;;;;;;;;;;;;;27.26;24.92;100781.31;5085967;28;1245;-26
2023/04/07 08:09:14;;;;;;;;;;;;;;;27.06;24.36;100773.72;5096247;28;1087;-26
2023/04/07 08:11:40;;;;;;;;;;;;;;;27.27;24.51;100791.09;5098413;28;1102;-24
2023/04/07 08:14:06;;;;;;;;;;;;;;;27.41;24.27;100778.63;5098055;28;1087;-26
2023/04/07 08:16:31;;;;;;;;;;;;;;;27.00;23.81;100772.56;5085212;28;1131;-27
2023/04/07 08:18:57;;;;;;;;;;;;;;;26.99;24.11;100781.66;5093850;28;1316;-23
2023/04/07 08:21:22;;;;;;;;;;;;;;;27.30;24.59;100773.69;5097141;28;1906;-26
2023/04/07 08:23:48;;;;;;;;;;;;;;;27.40;23.62;100776.97;5097744;28;1210;-26
2023/04/07 08:26:13;;;;;;;;;;;;;;;26.14;19.73;100776.13;5096472;28;1413;-24
2023/04/07 08:28:39;;;;;;;;;;;;;;;25.96;22.04;100776.38;5097859;28;1138;-23
2023/04/07 08:31:05;;;;;;;;;;;;;;;26.61;20.78;100779.75;5097712;28;1011;-23
2023/04/07 08:33:30;;;;;;;;;;;;;;;27.11;20.46;100775.91;5097818;28;1055;-23
2023/04/07 08:35:56;;;;;;;;;;;;;;;26.69;21.79;100770.78;5097795;28;1130;-24
2023/04/07 08:38:21;;;;;;;;;;;;;;;25.46;19.90;100776.50;5097535;28;1083;-27
2023/04/07 08:40:48;;;;;;;;;;;;;;;26.36;21.84;100773.69;5097059;28;1913;-25
2023/04/07 08:43:14;;;;;;;;;;;;;;;27.05;20.58;100784.69;5098092;28;1026;-26
2023/04/07 08:45:40;;;;;;;;;;;;;;;25.52;18.96;100779.34;5079856;28;1062;-27
2023/04/07 08:48:16;;;;;;;;;;;;;;;25.60;22.27;100786.56;5098119;28;1090;-28
2023/04/07 08:50:43;;;;;;;;;;;;;;;26.38;20.77;100780.59;5097549;28;1561;-26
2023/04/07 08:53:08;;;;;;;;;;;;;;;26.65;20.44;100785.66;5097817;28;1130;-25
2023/04/07 08:55:34;;;;;;;;;;;;;;;26.24;18.65;100784.81;5079477;28;1077;-25
2023/04/07 08:58:00;;;;;;;;;;;;;;;25.92;19.98;100787.50;5097768;28;1090;-28
2023/04/07 09:00:26;;;;;;;;;;;;;;;26.97;21.12;100797.22;5078963;28;1922;-23
2023/04/07 09:02:51;;;;;;;;;;;;;;;26.47;22.07;100789.47;5079588;28;1050;-27
2023/04/07 09:05:17;;;;;;;;;;;;;;;26.30;22.63;100796.78;5079010;28;1056;-27
2023/04/07 09:07:42;;;;;;;;;;;;;;;26.82;21.99;100799.88;5095932;28;1169;-26
2023/04/07 09:10:08;;;;;;;;;;;;;;;26.97;21.71;100804.47;5096558;28;1057;-28
2023/04/07 09:12:34;;;;;;;;;;;;;;;26.78;22.79;100810.19;5096945;28;1178;-26
2023/04/07 09:15:00;;;;;;;;;;;;;;;26.96;22.12;100809.03;5071388;28;1296;-25
2023/04/07 09:17:26;;;;;;;;;;;;;;;26.96;22.57;100811.72;5096471;28;1075;-24
2023/04/07 09:19:55;;;;;;;;;;;;;;;27.26;22.33;100813.72;5094306;28;1099;-24
2023/04/07 09:22:53;;;;;;;;;;;;;;;27.48;22.09;100812.00;5096110;28;1909;-27
2023/04/07 09:25:21;;;;;;;;;;;;;;;27.01;22.56;100814.75;5066661;28;1165;-25
2023/04/07 09:28:00;;;;;;;;;;;;;;;26.60;23.37;100809.63;5079545;28;1242;-28
2023/04/07 09:30:26;;;;;;;;;;;;;;;26.68;23.01;100806.03;5078152;28;1063;-26
2023/04/07 09:32:51;;;;;;;;;;;;;;;26.96;22.92;100809.03;5096174;28;980;-24
2023/04/07 09:35:17;;;;;;;;;;;;;;;26.46;23.13;100811.22;5097077;28;1119;-25
2023/04/07 09:37:43;;;;;;;;;;;;;;;26.55;23.47;100806.63;5096622;28;1102;-27
2023/04/07 09:40:09;;;;;;;;;;;;;;;26.42;23.67;100802.66;5096978;28;1977;-29
2023/04/07 09:42:36;;;;;;;;;;;;;;;26.83;23.15;100808.78;5096469;28;1081;-27
2023/04/07 09:45:02;;;;;;;;;;;;;;;27.18;22.69;100816.47;5093404;28;1274;-27
2023/04/07 09:47:28;;;;;;;;;;;;;;;26.83;23.33;100804.25;5096725;28;1169;-25
2023/04/07 09:49:54;;;;;;;;;;;;;;;27.31;23.16;100808.59;5096785;28;1047;-25
2023/04/07 09:52:46;;;;;;;;;;;;;;;27.43;22.82;100806.31;5090891;28;1288;-26
2023/04/07 09:55:12;;;;;;;;;;;;;;;27.59;22.80;100809.88;5095741;28;1700;-29
2023/04/07 09:57:37;;;;;;;;;;;;;;;27.19;23.11;100808.22;5096644;28;1054;-29
2023/04/07 10:00:03;;;;;;;;;;;;;;;27.14;23.26;100816.03;5078479;28;1086;-27
2023/04/07 10:02:38;;;;;;;;;;;;;;;26.96;23.36;100816.31;5095710;28;1183;-26
2023/04/07 10:05:06;;;;;;;;;;;;;;;27.09;23.53;100816.53;5078635;28;1150;-27
2023/04/07 10:07:31;;;;;;;;;;;;;;;26.92;23.64;100818.53;5096089;28;1066;-25
2023/04/07 10:09:57;;;;;;;;;;;;;;;26.94;23.41;100819.19;5096772;28;1054;-25
2023/04/07 10:12:23;;;;;;;;;;;;;;;26.82;23.74;100826.88;5096374;28;1090;-24
2023/04/07 10:14:49;;;;;;;;;;;;;;;26.81;23.89;100827.88;5096064;28;1111;-26
2023/04/07 10:17:17;;;;;;;;;;;;;;;26.76;23.98;100831.09;5096846;28;1047;-27
2023/04/07 10:19:43;;;;;;;;;;;;;;;27.02;23.16;100831.81;5078971;28;1011;-27
2023/04/07 10:22:08;;;;;;;;;;;;;;;26.64;24.50;100825.28;5078018;28;1913;-24
2023/04/07 10:24:34;;;;;;;;;;;;;;;26.73;24.47;100826.06;5077465;28;1039;-25
2023/04/07 10:27:01;;;;;;;;;;;;;;;27.18;23.69;100825.44;5096119;28;1197;-25
2023/04/07 10:29:27;;;;;;;;;;;;;;;27.43;23.13;100825.22;5096342;28;1181;-29
2023/04/07 10:31:53;;;;;;;;;;;;;;;27.41;23.39;100819.16;5064441;28;1084;-24
2023/04/07 10:34:38;;;;;;;;;;;;;;;27.13;23.41;100825.97;5090307;28;1170;-26
2023/04/07 10:37:07;;;;;;;;;;;;;;;27.25;23.29;100825.53;5087908;28;1299;-27
2023/04/07 10:39:34;;;;;;;;;;;;;;;26.92;23.49;100821.22;5094469;28;1186;-24
2023/04/07 10:42:00;;;;;;;;;;;;;;;26.68;23.90;100824.91;5096240;28;1918;-25
2023/04/07 10:44:38;;;;;;;;;;;;;;;26.72;24.10;100827.09;5091056;28;1099;-24
2023/04/07 10:47:04;;;;;;;;;;;;;;;26.71;24.59;100821.88;5100267;28;1229;-27
2023/04/07 10:49:31;;;;;;;;;;;;;;;26.81;24.38;100822.47;5095841;28;1067;-25
2023/04/07 10:52:17;;;;;;;;;;;;;;;27.23;23.99;100822.19;5095821;28;1261;-24
2023/04/07 10:54:42;;;;;;;;;;;;;;;27.29;23.40;100826.03;5098461;28;1790;-25
2023/04/07 10:57:12;;;;;;;;;;;;;;;27.56;23.41;100832.69;5099860;28;1079;-24
2023/04/07 10:59:38;;;;;;;;;;;;;;;27.55;23.37;100827.47;5091228;28;1033;-26
2023/04/07 11:02:13;;;;;;;;;;;;;;;27.31;23.03;100829.38;5081740;28;1917;-27
2023/04/07 11:04:42;;;;;;;;;;;;;;;27.47;23.62;100826.53;5099059;28;1246;-24
2023/04/07 11:07:08;;;;;;;;;;;;;;;26.83;23.99;100816.88;5099442;28;1192;-26
2023/04/07 11:09:34;;;;;;;;;;;;;;;26.78;24.22;100820.97;5081034;28;949;-26
2023/04/07 11:11:59;;;;;;;;;;;;;;;26.49;22.50;100829.75;5087394;28;1060;-26
2023/04/07 11:14:31;;;;;;;;;;;;;;;26.37;23.01;100823.91;5099109;28;1531;-26
2023/04/07 11:16:57;;;;;;;;;;;;;;;26.53;23.86;100829.22;5100015;28;1035;-24
2023/04/07 11:19:23;;;;;;;;;;;;;;;26.57;24.16;100816.22;5099595;28;1154;-24
2023/04/07 11:21:48;;;;;;;;;;;;;;;26.52;24.50;100822.16;5095095;28;1965;-28
2023/04/07 11:24:37;;;;;;;;;;;;;;;26.90;24.09;100823.25;5099535;28;1126;-26
2023/04/07 11:27:03;;;;;;;;;;;;;;;27.19;23.57;100821.72;5086429;28;1584;-25
2023/04/07 11:29:29;;;;;;;;;;;;;;;27.11;24.07;100824.50;5081877;28;1059;-25
2023/04/07 11:31:55;;;;;;;;;;;;;;;27.33;24.00;100830.03;5081013;28;1103;-24
2023/04/07 11:34:21;;;;;;;;;;;;;;;27.08;23.88;100831.09;5083123;28;1163;-24
2023/04/07 11:36:46;;;;;;;;;;;;;;;27.08;23.75;100836.47;5095178;28;1206;-25
2023/04/07 11:39:20;;;;;;;;;;;;;;;26.82;24.10;100823.31;5088731;28;1030;-25
2023/04/07 11:41:48;;;;;;;;;;;;;;;27.15;24.49;100825.78;5081253;28;1984;-34
2023/04/07 11:44:14;;;;;;;;;;;;;;;26.95;23.99;100825.41;5079813;28;1011;-29
2023/04/07 11:46:55;;;;;;;;;;;;;;;26.97;23.82;100826.94;5085041;28;1140;-33
2023/04/07 11:49:22;;;;;;;;;;;;;;;26.86;24.24;100827.34;5091746;28;1266;-30
2023/04/07 11:51:48;;;;;;;;;;;;;;;26.87;24.32;100818.22;5098963;28;1170;-30
2023/04/07 11:54:14;;;;;;;;;;;;;;;27.44;23.75;100818.81;5099113;28;1039;-31
2023/04/07 11:56:41;;;;;;;;;;;;;;;27.25;24.13;100820.16;5084392;28;972;-31
2023/04/07 11:59:06;;;;;;;;;;;;;;;27.08;23.83;100817.56;5098455;28;1156;-29
2023/04/07 12:01:41;;;;;;;;;;;;;;;27.13;24.22;100817.03;5099234;28;1906;-31
2023/04/07 12:04:11;;;;;;;;;;;;;;;27.38;23.86;100819.50;5099109;28;1126;-35
2023/04/07 12:06:40;;;;;;;;;;;;;;;27.53;23.98;100816.84;5098608;28;1098;-37
2023/04/07 12:09:06;;;;;;;;;;;;;;;27.49;24.14;100821.78;5098466;28;1193;-33
2023/04/07 12:11:32;;;;;;;;;;;;;;;27.20;24.10;100819.84;5098502;28;1023;-33
2023/04/07 12:13:58;;;;;;;;;;;;;;;27.08;24.08;100814.03;5098618;28;983;-30
2023/04/07 12:16:23;;;;;;;;;;;;;;;27.10;24.53;100814.69;5098356;28;1146;-31
2023/04/07 12:18:50;;;;;;;;;;;;;;;27.18;24.29;100811.94;5098309;28;1112;-33
2023/04/07 12:21:16;;;;;;;;;;;;;;;27.33;24.26;100808.41;5098514;28;1917;-33
2023/04/07 12:23:41;;;;;;;;;;;;;;;27.06;24.80;100816.09;5098411;28;738;-29
2023/04/07 12:26:08;;;;;;;;;;;;;;;27.08;24.83;100806.78;5098072;28;1042;-28
2023/04/07 12:28:33;;;;;;;;;;;;;;;26.97;24.74;100813.44;5098102;28;1106;-31
2023/04/07 12:30:59;;;;;;;;;;;;;;;27.18;24.45;100811.09;5085091;28;1078;-31
2023/04/07 12:33:24;;;;;;;;;;;;;;;26.93;25.58;100808.53;5098130;28;1106;-28
2023/04/07 12:35:50;;;;;;;;;;;;;;;27.34;25.03;100807.41;5085726;28;1058;-28
2023/04/07 12:38:16;;;;;;;;;;;;;;;27.31;24.85;100805.09;5098627;28;1102;-29
2023/04/07 12:40:42;;;;;;;;;;;;;;;27.62;24.69;100813.06;5079803;28;1930;-29
2023/04/07 12:43:07;;;;;;;;;;;;;;;27.15;25.06;100809.59;5097355;28;1293;-28
2023/04/07 12:45:33;;;;;;;;;;;;;;;26.97;25.45;100813.44;5094308;28;1008;-38
2023/04/07 12:47:59;;;;;;;;;;;;;;;27.04;24.90;100810.03;5095133;28;1242;-33